Time;durP1;ratioP1;P1;durP2;ratioP2;P2;SDS_P1;SDS_P2;PMS_P1;PMS_P2;Temp;Humidity;BMP_temperature;BMP_pressure;BME280_temperature;BME280_humidity;BME280_pressure;Samples;Min_cycle;Max_cycle;Signal;HPM_P1;HPM_P2
2021/04/19 00:00:28;;;;;;;4.80;4.27;;;;;;;8.84;100.00;100927.16;4991673;28;20636;-73
2021/04/19 00:02:53;;;;;;;5.33;4.93;;;;;;;8.88;100.00;100928.19;4991668;28;20169;-73
2021/04/19 00:05:20;;;;;;;5.27;4.80;;;;;;;9.07;99.60;100927.47;4991650;28;20256;-72
2021/04/19 00:07:46;;;;;;;4.00;3.60;;;;;;;9.21;99.60;100917.47;4991560;28;20573;-73
2021/04/19 00:10:18;;;;;;;5.20;4.80;;;;;;;9.32;98.62;100918.19;4991561;28;20177;-75
2021/04/19 00:12:45;;;;;;;5.27;4.87;;;;;;;9.03;98.06;100923.69;4993081;28;20172;-73
2021/04/19 00:15:12;;;;;;;5.40;4.90;;;;;;;8.97;99.13;100920.22;4995302;28;20228;-75
2021/04/19 00:17:37;;;;;;;4.90;4.50;;;;;;;8.89;99.08;100909.94;4993564;28;20614;-73
2021/04/19 00:20:04;;;;;;;4.40;4.10;;;;;;;9.15;98.47;100907.75;4995373;28;20208;-73
2021/04/19 00:22:30;;;;;;;4.40;4.00;;;;;;;9.33;97.76;100911.63;4994859;28;20173;-73
2021/04/19 00:24:55;;;;;;;5.10;4.70;;;;;;;9.29;96.62;100922.31;4995303;28;20176;-72
2021/04/19 00:27:21;;;;;;;5.97;5.47;;;;;;;9.21;97.10;100906.56;4997605;28;20205;-72
2021/04/19 00:29:46;;;;;;;6.47;3.97;;;;;;;8.79;98.13;100912.75;4996197;28;20707;-73
2021/04/19 00:32:11;;;;;;;4.87;4.47;;;;;;;8.90;97.98;100908.84;4995084;28;20193;-73
2021/04/19 00:34:37;;;;;;;4.73;4.10;;;;;;;8.76;98.11;100911.44;4995249;28;20523;-72
2021/04/19 00:37:02;;;;;;;5.80;5.30;;;;;;;8.59;99.63;100916.50;4994738;28;20161;-73
2021/04/19 00:39:30;;;;;;;6.27;5.67;;;;;;;8.61;100.00;100920.56;4994607;28;20260;-73
2021/04/19 00:41:55;;;;;;;5.10;4.70;;;;;;;8.39;100.00;100914.78;4994552;28;20217;-73
2021/04/19 00:44:20;;;;;;;4.87;4.37;;;;;;;8.37;100.00;100922.41;4994581;28;20199;-73
2021/04/19 00:46:47;;;;;;;5.33;4.87;;;;;;;8.34;100.00;100922.97;4994396;28;20224;-73
2021/04/19 00:49:14;;;;;;;4.10;3.80;;;;;;;8.24;100.00;100918.38;5009503;28;20177;-73
2021/04/19 00:51:40;;;;;;;3.87;3.57;;;;;;;8.25;100.00;100920.03;4994398;28;20165;-72
2021/04/19 00:54:05;;;;;;;4.00;3.70;;;;;;;8.24;100.00;100915.66;5009582;28;20649;-72
2021/04/19 00:56:31;;;;;;;3.50;3.20;;;;;;;8.19;100.00;100915.69;4994336;28;20318;-73
2021/04/19 00:58:56;;;;;;;3.00;2.80;;;;;;;8.12;100.00;100907.06;4994290;28;20199;-72
2021/04/19 01:01:21;;;;;;;3.47;3.27;;;;;;;8.23;100.00;100921.38;4994276;28;20176;-72
2021/04/19 01:03:47;;;;;;;3.93;3.47;;;;;;;8.24;100.00;100915.66;4994196;28;20197;-72
2021/04/19 01:06:12;;;;;;;3.37;3.10;;;;;;;8.07;100.00;100912.53;4994296;28;20231;-72
2021/04/19 01:08:37;;;;;;;4.17;3.43;;;;;;;8.01;100.00;100913.66;4994018;28;20641;-74
2021/04/19 01:11:03;;;;;;;4.33;3.93;;;;;;;8.08;100.00;100922.31;4994072;28;20185;-73
2021/04/19 01:13:29;;;;;;;3.33;3.03;;;;;;;8.30;100.00;100919.16;4994052;28;20178;-74
2021/04/19 01:15:54;;;;;;;3.50;3.20;;;;;;;8.05;100.00;100923.69;4994250;28;20173;-72
2021/04/19 01:18:20;;;;;;;3.87;3.43;;;;;;;8.03;100.00;100925.88;4993591;28;20292;-72
2021/04/19 01:20:47;;;;;;;5.73;4.33;;;;;;;8.01;100.00;100919.09;4994184;28;20185;-72
2021/04/19 01:23:14;;;;;;;3.83;3.53;;;;;;;7.99;100.00;100919.41;4993052;28;20265;-72
2021/04/19 01:25:40;;;;;;;3.93;3.50;;;;;;;8.05;100.00;100920.97;4993759;28;20181;-72
2021/04/19 01:28:05;;;;;;;4.23;3.93;;;;;;;8.13;100.00;100922.28;4993981;28;20220;-72
2021/04/19 01:30:34;;;;;;;5.00;4.50;;;;;;;8.12;100.00;100922.59;4993779;28;20181;-73
2021/04/19 01:33:00;;;;;;;4.20;3.90;;;;;;;8.05;100.00;100920.97;4993515;28;20204;-73
2021/04/19 01:35:26;;;;;;;5.17;4.77;;;;;;;8.05;100.00;100920.97;4993580;28;20653;-72
2021/04/19 01:37:51;;;;;;;4.80;4.40;;;;;;;8.00;100.00;100923.75;4993401;28;20189;-72
2021/04/19 01:40:18;;;;;;;5.33;4.90;;;;;;;8.07;100.00;100917.97;4993508;28;20204;-73
2021/04/19 01:42:46;;;;;;;6.07;5.27;;;;;;;7.98;100.00;100919.69;4993441;28;20181;-72
2021/04/19 01:45:13;;;;;;;6.17;5.57;;;;;;;8.02;100.00;100915.28;4993407;28;20181;-72
2021/04/19 01:47:39;;;;;;;5.13;4.73;;;;;;;8.03;100.00;100912.28;4993615;28;20212;-73
2021/04/19 01:50:14;;;;;;;4.53;4.07;;;;;;;7.99;100.00;100913.94;4993782;28;20181;-73
2021/04/19 01:52:40;;;;;;;6.23;5.73;;;;;;;7.98;100.00;100916.97;4993138;28;20188;-73
2021/04/19 01:55:10;;;;;;;6.17;5.67;;;;;;;7.95;100.00;100912.88;4993307;28;20185;-72
2021/04/19 01:57:38;;;;;;;6.13;5.10;;;;;;;7.91;100.00;100913.72;4993177;28;20712;-72
2021/04/19 02:00:06;;;;;;;6.80;6.30;;;;;;;7.89;100.00;100914.00;4993601;28;20178;-72
2021/04/19 02:03:01;;;;;;;7.77;6.90;;;;;;;7.89;100.00;100915.91;4993135;28;20212;-72
2021/04/19 02:05:32;;;;;;;7.03;6.40;;;;;;;7.86;100.00;100913.78;4993449;28;20177;-72
2021/04/19 02:08:48;;;;;;;7.60;6.90;;;;;;;7.88;100.00;100914.28;4992989;28;20209;-72
2021/04/19 02:11:24;;;;;;;8.20;6.87;;;;;;;7.85;100.00;100912.94;4991827;28;20197;-72
2021/04/19 02:13:58;;;;;;;8.10;7.27;;;;;;;7.88;100.00;100911.56;4992782;28;20227;-72
2021/04/19 02:16:56;;;;;;;7.37;6.67;;;;;;;7.89;100.00;100913.19;4992929;28;20217;-72
2021/04/19 02:19:39;;;;;;;8.47;7.83;;;;;;;7.88;100.00;100917.81;4992663;28;20191;-72
2021/04/19 02:22:18;;;;;;;7.93;7.23;;;;;;;7.87;100.00;100908.03;4992685;28;20173;-72
2021/04/19 02:24:49;;;;;;;8.83;8.03;;;;;;;7.89;100.00;100915.91;4991468;28;20184;-72
2021/04/19 02:27:30;;;;;;;7.63;6.50;;;;;;;7.90;100.00;100923.78;4992889;28;20205;-73
2021/04/19 02:29:58;;;;;;;9.23;8.40;;;;;;;7.86;100.00;100922.75;4992577;28;20188;-72
2021/04/19 02:32:32;;;;;;;10.07;9.17;;;;;;;7.85;100.00;100914.88;4992520;28;20532;-73
2021/04/19 02:35:01;;;;;;;10.47;8.27;;;;;;;7.86;100.00;100914.56;4990449;28;20182;-72
2021/04/19 02:37:29;;;;;;;15.57;7.90;;;;;;;7.87;100.00;100918.09;4992450;28;20181;-73
2021/04/19 02:39:58;;;;;;;11.83;8.60;;;;;;;7.90;100.00;100917.53;4992287;28;20177;-72
2021/04/19 02:42:24;;;;;;;8.97;7.87;;;;;;;7.92;100.00;100909.91;4992325;28;20205;-73
2021/04/19 02:44:52;;;;;;;10.97;9.43;;;;;;;7.88;100.00;100917.81;4992308;28;20205;-73
2021/04/19 02:47:20;;;;;;;14.20;9.30;;;;;;;7.91;100.00;100913.72;4992139;28;20259;-72
2021/04/19 02:49:46;;;;;;;9.93;9.03;;;;;;;7.90;100.00;100910.19;5007298;28;20536;-73
2021/04/19 02:52:12;;;;;;;10.27;9.23;;;;;;;7.91;100.00;100917.25;4990768;28;20181;-73
2021/04/19 02:54:43;;;;;;;12.00;9.13;;;;;;;7.90;100.00;100921.06;4992083;28;20181;-73
2021/04/19 02:57:28;;;;;;;11.20;9.77;;;;;;;7.91;100.00;100911.81;4992072;28;20208;-72
2021/04/19 02:59:56;;;;;;;11.87;10.77;;;;;;;7.90;100.00;100921.06;4992136;28;20200;-72
2021/04/19 03:02:25;;;;;;;11.97;10.80;;;;;;;7.92;100.00;100907.19;4991873;28;20625;-73
2021/04/19 03:04:51;;;;;;;11.37;9.37;;;;;;;7.93;100.00;100906.09;4991982;28;20296;-72
2021/04/19 03:07:20;;;;;;;13.17;11.07;;;;;;;7.90;100.00;100910.19;4991776;28;20207;-72
2021/04/19 03:09:54;;;;;;;12.83;11.53;;;;;;;7.87;100.00;100912.66;4992024;28;20181;-72
2021/04/19 03:12:26;;;;;;;13.70;12.30;;;;;;;7.91;100.00;100908.28;4991847;28;20173;-73
2021/04/19 03:14:57;;;;;;;11.63;10.53;;;;;;;7.85;100.00;100912.16;4991936;28;20203;-73
2021/04/19 03:17:24;;;;;;;15.50;10.90;;;;;;;7.81;100.00;100906.47;4991807;28;20169;-73
2021/04/19 03:20:03;;;;;;;11.37;9.60;;;;;;;7.79;100.00;100908.63;4991651;28;20181;-72
2021/04/19 03:22:29;;;;;;;13.27;11.30;;;;;;;7.80;100.00;100918.41;4991569;28;20675;-72
2021/04/19 03:24:56;;;;;;;12.33;10.97;;;;;;;7.78;100.00;100911.63;4991643;28;20180;-73
2021/04/19 03:27:25;;;;;;;11.63;9.90;;;;;;;7.74;100.00;100914.09;4991496;28;20259;-72
2021/04/19 03:29:50;;;;;;;11.70;10.40;;;;;;;7.74;100.00;100924.97;4991619;28;20180;-73
2021/04/19 03:32:18;;;;;;;11.97;10.77;;;;;;;7.74;100.00;100925.78;4991874;28;20173;-73
2021/04/19 03:34:45;;;;;;;15.27;11.00;;;;;;;7.73;100.00;100916.00;5006628;28;20571;-73
2021/04/19 03:37:16;;;;;;;11.53;10.33;;;;;;;7.68;100.00;100918.78;4991506;28;20176;-73
2021/04/19 03:39:46;;;;;;;11.33;10.23;;;;;;;7.66;100.00;100909.25;4991443;28;20227;-72
2021/04/19 03:42:13;;;;;;;13.20;12.10;;;;;;;7.63;100.00;100916.06;4991387;28;20260;-73
2021/04/19 03:44:40;;;;;;;17.30;11.37;;;;;;;7.63;100.00;100912.53;4991489;28;20185;-73
2021/04/19 03:47:06;;;;;;;13.00;11.80;;;;;;;7.60;100.00;100910.38;4991051;28;20561;-72
2021/04/19 03:49:38;;;;;;;16.40;12.47;;;;;;;7.58;100.00;100918.81;4991316;28;20208;-74
2021/04/19 03:52:09;;;;;;;10.33;9.33;;;;;;;7.58;100.00;100918.00;4991345;28;20177;-73
2021/04/19 03:54:40;;;;;;;12.50;11.30;;;;;;;7.56;100.00;100907.41;4991735;28;20169;-73
2021/04/19 03:57:07;;;;;;;11.43;10.27;;;;;;;7.53;100.00;100920.75;4991408;28;20184;-72
2021/04/19 03:59:35;;;;;;;13.60;10.87;;;;;;;7.47;100.00;100911.78;4991388;28;20416;-72
2021/04/19 04:02:03;;;;;;;14.63;13.10;;;;;;;7.45;100.00;100906.63;4991167;28;20181;-72
2021/04/19 04:04:30;;;;;;;14.03;11.53;;;;;;;7.42;100.00;100909.09;4991365;28;20185;-73
2021/04/19 04:06:57;;;;;;;12.43;11.33;;;;;;;7.44;100.00;100906.91;4991211;28;20204;-72
2021/04/19 04:09:23;;;;;;;14.20;11.67;;;;;;;7.38;100.00;100908.84;4991208;28;20182;-72
2021/04/19 04:11:48;;;;;;;19.60;10.77;;;;;;;7.38;100.00;100919.72;4991271;28;20199;-73
2021/04/19 04:14:14;;;;;;;14.57;12.93;;;;;;;7.32;100.00;100909.13;4991198;28;20268;-73
2021/04/19 04:16:42;;;;;;;18.50;12.90;;;;;;;7.27;100.00;100920.84;4991217;28;20184;-72
2021/04/19 04:19:08;;;;;;;14.23;10.60;;;;;;;7.23;100.00;100921.66;4991256;28;20178;-72
2021/04/19 04:21:34;;;;;;;11.93;10.80;;;;;;;7.22;100.00;100925.47;4991201;28;20219;-72
2021/04/19 04:24:00;;;;;;;12.50;10.97;;;;;;;7.16;100.00;100924.69;4990952;28;20209;-72
2021/04/19 04:26:26;;;;;;;12.43;10.37;;;;;;;7.13;100.00;100928.78;4990966;28;20664;-72
2021/04/19 04:28:53;;;;;;;12.27;10.80;;;;;;;7.13;100.00;100923.34;4991108;28;20181;-73
2021/04/19 04:31:18;;;;;;;17.17;11.10;;;;;;;7.14;100.00;100926.88;4991219;28;20182;-72
2021/04/19 04:33:43;;;;;;;10.13;9.13;;;;;;;7.12;100.00;100937.22;4991052;28;20196;-73
2021/04/19 04:36:09;;;;;;;10.87;9.73;;;;;;;7.10;100.00;100936.69;4991071;28;20556;-74
2021/04/19 04:38:34;;;;;;;13.50;12.10;;;;;;;7.06;100.00;100932.84;4990953;28;20682;-73
2021/04/19 04:40:59;;;;;;;17.13;12.67;;;;;;;7.04;100.00;100935.03;4990902;28;20189;-73
2021/04/19 04:43:27;;;;;;;11.77;10.67;;;;;;;7.00;100.00;100932.06;4990842;28;20224;-73
2021/04/19 04:45:58;;;;;;;13.00;9.20;;;;;;;7.03;100.00;100928.78;4991153;28;20178;-73
2021/04/19 04:48:46;;;;;;;10.53;9.47;;;;;;;6.98;100.00;100931.53;4991019;28;20645;-73
2021/04/19 04:51:16;;;;;;;12.60;11.20;;;;;;;7.01;100.00;100935.59;4991459;28;20185;-73
2021/04/19 04:53:44;;;;;;;12.63;11.33;;;;;;;7.09;100.00;100933.16;4990679;28;20189;-73
2021/04/19 04:56:13;;;;;;;13.97;11.83;;;;;;;6.97;100.00;100934.53;4990842;28;20177;-72
2021/04/19 04:58:40;;;;;;;13.63;11.93;;;;;;;6.83;100.00;100940.53;4992176;28;20264;-72
2021/04/19 05:01:07;;;;;;;14.17;10.73;;;;;;;6.84;100.00;100954.91;4994401;28;20177;-72
2021/04/19 05:03:34;;;;;;;16.07;12.83;;;;;;;6.82;100.00;100946.25;4993860;28;20181;-72
2021/04/19 05:06:00;;;;;;;12.97;10.97;;;;;;;6.84;100.00;100957.63;4994266;28;20181;-73
2021/04/19 05:08:26;;;;;;;11.97;10.80;;;;;;;6.91;100.00;100955.44;4994448;28;20312;-73
2021/04/19 05:10:51;;;;;;;20.03;12.23;;;;;;;6.89;100.00;100954.09;4994108;28;20261;-73
2021/04/19 05:13:18;;;;;;;15.63;11.50;;;;;;;6.92;100.00;100956.25;4994155;28;20256;-73
2021/04/19 05:15:49;;;;;;;11.27;9.97;;;;;;;6.91;100.00;100958.16;4994404;28;20625;-73
2021/04/19 05:18:17;;;;;;;15.53;12.53;;;;;;;6.91;100.00;100960.88;4993987;28;20252;-72
2021/04/19 05:20:43;;;;;;;14.27;12.77;;;;;;;6.94;100.00;100965.75;4993716;28;20177;-73
2021/04/19 05:23:13;;;;;;;18.23;11.13;;;;;;;6.96;100.00;100958.16;4993694;28;20315;-73
2021/04/19 05:25:39;;;;;;;12.47;10.27;;;;;;;7.01;100.00;100960.06;4993891;28;20679;-72
2021/04/19 05:28:05;;;;;;;12.83;10.47;;;;;;;6.99;100.00;100963.03;4993727;28;20700;-73
2021/04/19 05:30:31;;;;;;;12.93;11.57;;;;;;;7.03;100.00;100966.00;4994112;28;20169;-73
2021/04/19 05:33:02;;;;;;;16.17;10.60;;;;;;;7.01;100.00;100966.28;4993759;28;20169;-73
2021/04/19 05:35:28;;;;;;;10.63;9.63;;;;;;;7.00;100.00;100964.66;4993643;28;20260;-74
2021/04/19 05:37:55;;;;;;;11.60;10.33;;;;;;;7.01;100.00;100963.56;4993747;28;20181;-73
2021/04/19 05:40:24;;;;;;;10.37;9.37;;;;;;;7.07;100.00;100970.63;4993538;28;20292;-72
2021/04/19 05:42:50;;;;;;;11.53;9.23;;;;;;;7.09;100.00;100968.47;4993506;28;20272;-72
2021/04/19 05:45:16;;;;;;;11.53;10.43;;;;;;;7.10;100.00;100972.81;4993619;28;20654;-73
2021/04/19 05:47:47;;;;;;;10.20;8.80;;;;;;;7.10;100.00;100978.25;4993343;28;20536;-73
2021/04/19 05:50:14;;;;;;;10.50;9.57;;;;;;;7.13;100.00;100976.88;4993447;28;20200;-71
2021/04/19 05:52:40;;;;;;;10.33;9.00;;;;;;;7.15;100.00;100975.50;4993252;28;20177;-74
2021/04/19 05:55:07;;;;;;;10.30;9.17;;;;;;;7.19;100.00;100983.09;4993717;28;20594;-73
2021/04/19 05:57:39;;;;;;;10.73;9.73;;;;;;;7.20;100.00;100982.00;4993468;28;20252;-73
2021/04/19 06:00:31;;;;;;;11.80;10.23;;;;;;;7.22;100.00;100983.34;4993380;28;20625;-74
2021/04/19 06:03:11;;;;;;;12.30;9.67;;;;;;;7.24;100.00;100991.25;4993239;28;20204;-73
2021/04/19 06:05:58;;;;;;;11.70;10.53;;;;;;;7.30;100.00;100992.88;4993085;28;20200;-72
2021/04/19 06:08:30;;;;;;;12.20;10.07;;;;;;;7.28;100.00;100989.59;4993116;28;20181;-75
2021/04/19 06:11:06;;;;;;;15.03;11.33;;;;;;;7.33;100.00;100995.03;4993052;28;20166;-73
2021/04/19 06:13:34;;;;;;;13.30;10.60;;;;;;;7.31;100.00;100997.19;4993055;28;20651;-72
2021/04/19 06:16:00;;;;;;;10.30;9.20;;;;;;;7.42;100.00;100996.09;4993248;28;20260;-72
2021/04/19 06:18:29;;;;;;;12.27;10.57;;;;;;;7.49;100.00;100990.34;4993220;28;20189;-73
2021/04/19 06:20:56;;;;;;;13.83;10.20;;;;;;;7.55;100.00;100994.69;4993000;28;20189;-72
2021/04/19 06:23:23;;;;;;;13.33;11.93;;;;;;;7.52;100.00;100993.31;4992768;28;20183;-73
2021/04/19 06:29:27;;;;;;;9.70;7.60;;;;;;;7.70;100.00;100995.44;4992797;28;20177;-73
2021/04/19 06:31:54;;;;;;;10.77;9.70;;;;;;;7.70;99.68;100992.72;4992563;28;20235;-73
2021/04/19 06:34:19;;;;;;;8.87;8.07;;;;;;;7.96;99.92;100995.34;4992640;28;20188;-74
2021/04/19 06:36:47;;;;;;;10.17;9.20;;;;;;;8.05;98.45;101002.59;4992622;28;20181;-72
2021/04/19 06:39:15;;;;;;;7.73;6.93;;;;;;;7.86;97.38;101000.81;4992566;28;20180;-72
2021/04/19 06:41:43;;;;;;;8.57;7.83;;;;;;;7.85;97.52;101000.00;4992242;28;20239;-71
2021/04/19 06:44:09;;;;;;;9.73;8.77;;;;;;;7.99;97.65;101003.75;4992306;28;20181;-72
2021/04/19 06:46:38;;;;;;;9.87;9.00;;;;;;;8.00;97.18;101008.09;4992175;28;20201;-73
2021/04/19 06:49:05;;;;;;;8.87;7.97;;;;;;;7.83;96.61;101012.25;4992645;28;20264;-71
2021/04/19 06:51:31;;;;;;;9.40;6.20;;;;;;;7.77;96.69;101008.72;4994782;28;20655;-71
2021/04/19 06:53:58;;;;;;;7.90;6.63;;;;;;;7.82;97.68;101008.72;4993691;28;20232;-71
2021/04/19 06:56:33;;;;;;;7.27;6.67;;;;;;;7.78;97.01;101010.34;4992191;28;20204;-72
2021/04/19 06:58:59;;;;;;;8.27;7.57;;;;;;;7.67;96.92;101006.06;4992225;28;20176;-71
2021/04/19 07:01:28;;;;;;;6.90;6.20;;;;;;;7.79;96.95;101016.59;4992086;28;20177;-72
2021/04/19 07:04:10;;;;;;;7.33;6.63;;;;;;;7.88;96.31;101010.31;4991879;28;20208;-71
2021/04/19 07:06:37;;;;;;;7.83;7.20;;;;;;;7.89;96.89;101011.94;4991897;28;20193;-72
2021/04/19 07:09:27;;;;;;;6.00;5.50;;;;;;;7.91;96.32;101003.50;4991757;28;20281;-71
2021/04/19 07:12:13;;;;;;;7.73;7.03;;;;;;;7.94;96.05;101011.09;4992251;28;20513;-71
2021/04/19 07:14:39;;;;;;;8.37;7.57;;;;;;;8.00;96.08;101010.00;4991804;28;20181;-72
2021/04/19 07:17:05;;;;;;;8.73;7.93;;;;;;;8.01;95.97;101009.72;4991793;28;20781;-72
2021/04/19 07:19:32;;;;;;;8.87;8.00;;;;;;;8.21;95.53;101007.97;4991647;28;20169;-72
2021/04/19 07:21:57;;;;;;;9.63;8.70;;;;;;;8.27;94.66;101006.84;4991405;28;20683;-73
2021/04/19 07:24:26;;;;;;;9.93;8.97;;;;;;;8.24;94.52;101002.75;4991649;28;20264;-73
2021/04/19 07:26:56;;;;;;;14.10;12.60;;;;;;;8.25;92.72;100995.44;4991550;28;20203;-72
2021/04/19 07:29:21;;;;;;;14.40;12.90;;;;;;;8.30;92.67;101000.84;4991701;28;20173;-72
2021/04/19 07:31:51;;;;;;;11.97;10.77;;;;;;;8.28;92.33;101000.31;4992077;28;20268;-73
2021/04/19 07:34:19;;;;;;;12.23;11.20;;;;;;;8.24;92.67;101002.75;4991532;28;20219;-72
2021/04/19 07:36:58;;;;;;;12.80;11.60;;;;;;;8.37;92.99;101011.44;4991606;28;20169;-72
2021/04/19 07:39:25;;;;;;;14.07;12.27;;;;;;;8.37;92.90;101009.50;4991492;28;20647;-73
2021/04/19 07:41:53;;;;;;;14.70;13.20;;;;;;;8.28;91.44;100998.41;4991337;28;20181;-78
2021/04/19 07:44:38;;;;;;;14.43;13.03;;;;;;;8.30;92.08;101012.53;4991410;28;20212;-72
2021/04/19 07:47:22;;;;;;;16.37;14.73;;;;;;;8.22;91.13;100999.50;4991176;28;20220;-73
2021/04/19 07:50:09;;;;;;;17.90;15.73;;;;;;;8.06;91.53;101004.22;4991376;28;20178;-73
2021/04/19 07:52:51;;;;;;;15.27;13.63;;;;;;;8.17;92.26;101007.72;4991250;28;20268;-72
2021/04/19 07:55:28;;;;;;;15.37;13.50;;;;;;;8.39;91.22;101007.34;4991559;28;20188;-72
2021/04/19 07:57:54;;;;;;;17.70;13.50;;;;;;;8.45;91.74;101010.84;4991306;28;20204;-72
2021/04/19 08:00:32;;;;;;;15.60;13.47;;;;;;;8.57;89.77;101012.13;4991333;28;20189;-71
2021/04/19 08:03:01;;;;;;;14.43;13.10;;;;;;;8.65;88.89;101014.22;4990943;28;20173;-72
2021/04/19 08:05:52;;;;;;;15.77;14.07;;;;;;;8.39;88.55;101010.06;4990989;28;20604;-71
2021/04/19 08:08:28;;;;;;;17.03;14.60;;;;;;;8.56;89.23;101009.69;4987831;28;20764;-73
2021/04/19 08:11:09;;;;;;;16.20;13.53;;;;;;;8.53;89.06;101004.78;4991408;28;20177;-73
2021/04/19 08:13:34;;;;;;;14.87;13.27;;;;;;;8.45;88.59;101003.47;4990966;28;20260;-72
2021/04/19 08:16:20;;;;;;;18.90;13.13;;;;;;;8.54;89.38;101007.25;4991293;28;20260;-72
2021/04/19 08:18:46;;;;;;;14.33;12.87;;;;;;;8.61;89.44;101007.72;5005701;28;20177;-72
2021/04/19 08:21:12;;;;;;;16.10;12.23;;;;;;;8.71;89.68;101008.75;4991038;28;20214;-71
2021/04/19 08:23:44;;;;;;;11.13;10.03;;;;;;;8.72;89.92;101002.19;5006053;28;20540;-72
2021/04/19 08:26:10;;;;;;;13.47;12.17;;;;;;;8.58;88.86;101011.00;4990797;28;20182;-72
2021/04/19 08:28:46;;;;;;;11.10;10.10;;;;;;;8.35;89.27;101012.53;4991264;28;20188;-72
2021/04/19 08:31:12;;;;;;;11.97;9.20;;;;;;;8.48;90.44;101013.81;4991623;28;20169;-71
2021/04/19 08:33:38;;;;;;;10.87;9.87;;;;;;;8.51;90.50;101018.69;4992081;28;20169;-72
2021/04/19 08:36:09;;;;;;;9.13;8.23;;;;;;;8.54;90.63;101020.84;4993322;28;20707;-72
2021/04/19 08:38:35;;;;;;;9.83;8.87;;;;;;;8.56;90.26;101015.13;4994015;28;20281;-72
2021/04/19 08:41:01;;;;;;;9.83;8.93;;;;;;;8.69;89.86;101010.94;4990007;28;20704;-72
2021/04/19 08:43:29;;;;;;;8.43;7.63;;;;;;;8.58;90.06;101011.00;4993530;28;20183;-71
2021/04/19 08:45:56;;;;;;;8.90;8.13;;;;;;;8.71;89.98;101016.91;4994024;28;20178;-71
2021/04/19 08:48:21;;;;;;;10.20;9.20;;;;;;;8.72;89.53;101018.53;4993805;28;20248;-72
2021/04/19 08:50:53;;;;;;;10.63;9.67;;;;;;;8.64;88.31;101017.22;4994059;28;20707;-73
2021/04/19 08:53:20;;;;;;;9.60;8.80;;;;;;;8.78;88.69;101012.75;4992213;28;20196;-72
2021/04/19 08:55:47;;;;;;;10.73;9.73;;;;;;;8.84;88.72;101017.06;4994096;28;20208;-72
2021/04/19 08:58:15;;;;;;;10.30;9.23;;;;;;;8.84;87.76;101022.53;5008457;28;20673;-72
2021/04/19 09:00:45;;;;;;;10.33;9.53;;;;;;;8.99;87.57;101018.03;4992917;28;20193;-71
2021/04/19 09:03:14;;;;;;;9.73;8.73;;;;;;;9.00;86.89;101020.47;4992636;28;20181;-72
2021/04/19 09:05:39;;;;;;;11.97;10.43;;;;;;;8.80;86.04;101013.28;4993471;28;20661;-71
2021/04/19 09:08:11;;;;;;;11.33;10.23;;;;;;;8.80;86.55;101028.81;4993367;28;20216;-72
2021/04/19 09:10:56;;;;;;;11.07;9.97;;;;;;;8.62;86.84;101020.22;4993839;28;20252;-72
2021/04/19 09:13:36;;;;;;;11.30;10.23;;;;;;;8.63;87.16;101016.41;4978711;28;20169;-72
2021/04/19 09:16:17;;;;;;;10.70;9.80;;;;;;;8.73;86.94;101031.06;4985944;28;20173;-72
2021/04/19 09:18:45;;;;;;;9.07;8.27;;;;;;;8.76;87.91;101025.84;4992871;28;20188;-72
2021/04/19 09:21:33;;;;;;;9.00;8.20;;;;;;;8.76;88.78;101030.47;4993397;28;20181;-72
2021/04/19 09:23:58;;;;;;;8.00;7.30;;;;;;;8.79;89.19;101029.91;4993222;28;20268;-72
2021/04/19 09:26:42;;;;;;;9.60;8.60;;;;;;;8.88;88.68;101034.47;4993337;28;20340;-73
2021/04/19 09:29:07;;;;;;;9.70;8.73;;;;;;;8.79;88.80;101019.81;4993424;28;20178;-72
2021/04/19 09:31:58;;;;;;;9.13;8.23;;;;;;;9.02;88.13;101023.72;4992354;28;20181;-71
2021/04/19 09:34:44;;;;;;;9.10;8.20;;;;;;;9.16;87.72;101021.16;4993095;28;20272;-72
2021/04/19 09:37:12;;;;;;;9.47;8.57;;;;;;;9.10;86.50;101034.00;4986689;28;20184;-72
2021/04/19 09:39:51;;;;;;;9.43;8.53;;;;;;;9.52;87.40;101027.84;4993063;28;20174;-72
2021/04/19 09:42:19;;;;;;;9.67;7.83;;;;;;;9.46;85.96;101022.75;4992980;28;20624;-72
2021/04/19 09:44:53;;;;;;;9.17;8.33;;;;;;;9.42;85.47;101021.69;4992720;28;20184;-71
2021/04/19 09:47:50;;;;;;;6.27;5.67;;;;;;;9.60;85.08;101026.41;4992744;28;20290;-71
2021/04/19 09:50:19;;;;;;;10.43;9.50;;;;;;;9.28;86.77;101029.75;4993340;28;20181;-72
2021/04/19 09:52:52;;;;;;;11.17;10.07;;;;;;;9.26;87.14;101026.50;4992711;28;20170;-71
2021/04/19 09:55:22;;;;;;;10.27;9.47;;;;;;;9.11;86.54;101027.47;4992934;28;20194;-71
2021/04/19 09:57:48;;;;;;;10.13;9.13;;;;;;;9.32;87.44;101021.81;4992586;28;20173;-71
2021/04/19 10:00:14;;;;;;;11.07;9.47;;;;;;;9.60;86.22;101020.13;4992797;28;20180;-72
2021/04/19 10:02:41;;;;;;;9.47;8.57;;;;;;;10.05;85.70;101026.94;4991894;28;20227;-72
2021/04/19 10:05:09;;;;;;;9.30;8.40;;;;;;;9.71;85.14;101022.47;4992343;28;20197;-72
2021/04/19 10:07:40;;;;;;;10.70;9.63;;;;;;;9.81;83.34;101016.84;4992288;28;20735;-72
2021/04/19 10:10:07;;;;;;;9.97;8.90;;;;;;;9.43;85.18;101009.69;4992578;28;20579;-74
2021/04/19 10:12:36;;;;;;;9.93;8.93;;;;;;;9.83;85.06;101006.44;4992674;28;20625;-74
2021/04/19 10:15:01;;;;;;;8.90;8.07;;;;;;;9.98;82.85;101021.00;4992669;28;20268;-72
2021/04/19 10:17:32;;;;;;;9.47;7.27;;;;;;;9.96;83.64;101013.13;4992425;28;20277;-72
2021/04/19 10:20:12;;;;;;;9.63;8.63;;;;;;;9.79;83.50;101012.78;4992578;28;20675;-71
2021/04/19 10:22:38;;;;;;;8.77;7.97;;;;;;;10.02;84.00;101017.41;4992120;28;20269;-72
2021/04/19 10:25:03;;;;;;;8.67;7.77;;;;;;;9.69;83.68;101011.03;4992229;28;20280;-72
2021/04/19 10:27:31;;;;;;;10.03;9.23;;;;;;;9.68;84.23;101019.47;4991941;28;20220;-72
2021/04/19 10:30:17;;;;;;;9.53;8.73;;;;;;;9.74;83.76;101013.69;4992274;28;20185;-74
2021/04/19 10:32:46;;;;;;;6.47;5.93;;;;;;;9.71;84.02;101019.72;4992003;28;20177;-74
2021/04/19 10:35:35;;;;;;;9.37;8.53;;;;;;;9.49;84.87;101014.78;4992549;28;20605;-72
2021/04/19 10:38:01;;;;;;;8.10;7.40;;;;;;;9.65;84.67;101017.34;4992037;28;20182;-71
2021/04/19 10:40:27;;;;;;;9.30;8.43;;;;;;;9.97;84.01;101009.28;4992210;28;20288;-72
2021/04/19 10:43:01;;;;;;;7.93;7.17;;;;;;;9.77;83.51;101007.63;4992182;28;20260;-72
2021/04/19 10:45:28;;;;;;;9.93;8.93;;;;;;;9.80;82.99;101003.50;4991871;28;20177;-72
2021/04/19 10:48:17;;;;;;;9.30;8.50;;;;;;;9.64;82.58;101015.72;4991595;28;20197;-72
2021/04/19 10:50:43;;;;;;;8.37;7.67;;;;;;;10.10;83.14;101007.75;4991860;28;20680;-71
2021/04/19 10:53:09;;;;;;;9.33;8.53;;;;;;;9.86;81.79;100999.63;4991601;28;20189;-72
2021/04/19 10:55:34;;;;;;;9.70;8.73;;;;;;;9.72;82.08;100998.72;4991242;28;20189;-72
2021/04/19 10:58:00;;;;;;;9.40;8.60;;;;;;;9.83;82.03;101000.19;4991214;28;20275;-72
2021/04/19 11:00:25;;;;;;;9.43;8.60;;;;;;;10.19;82.11;100997.00;4991360;28;20177;-72
2021/04/19 11:02:53;;;;;;;10.10;9.10;;;;;;;10.07;81.07;101000.16;4991176;28;20177;-71
2021/04/19 11:05:19;;;;;;;9.97;8.97;;;;;;;10.19;81.13;100999.72;4991591;28;20185;-73
2021/04/19 11:07:44;;;;;;;10.90;9.90;;;;;;;10.08;81.84;100988.94;4991303;28;20608;-72
2021/04/19 11:10:21;;;;;;;9.10;8.30;;;;;;;10.12;81.36;100995.41;4991547;28;20204;-72
2021/04/19 11:13:04;;;;;;;9.47;8.57;;;;;;;10.50;80.72;100983.72;4991055;28;20640;-74
2021/04/19 11:15:33;;;;;;;9.53;8.73;;;;;;;10.37;79.93;100983.34;4991629;28;20240;-71
2021/04/19 11:18:00;;;;;;;10.03;8.87;;;;;;;10.33;80.55;100979.59;4991222;28;20655;-71
2021/04/19 11:20:29;;;;;;;10.70;9.67;;;;;;;10.92;79.39;100980.00;4991322;28;20173;-73
2021/04/19 11:22:58;;;;;;;11.33;10.40;;;;;;;11.08;77.58;100978.59;4991253;28;20165;-72
2021/04/19 11:25:29;;;;;;;11.10;10.20;;;;;;;11.20;77.69;100978.94;4991151;28;20200;-72
2021/04/19 11:28:16;;;;;;;8.67;7.93;;;;;;;11.68;77.09;100977.72;4991299;28;20300;-72
2021/04/19 11:30:42;;;;;;;12.33;10.50;;;;;;;11.16;74.61;100977.13;4991171;28;20211;-72
2021/04/19 11:33:10;;;;;;;11.87;10.67;;;;;;;11.06;76.09;100983.56;4991077;28;20205;-71
2021/04/19 11:35:38;;;;;;;9.63;8.73;;;;;;;11.04;75.65;100980.34;4991076;28;20280;-72
2021/04/19 11:38:07;;;;;;;11.07;10.07;;;;;;;10.95;76.63;100972.00;4991062;28;20272;-74